Time;durP1;ratioP1;P1;durP2;ratioP2;P2;SDS_P1;SDS_P2;PMS_P1;PMS_P2;Temp;Humidity;BMP_temperature;BMP_pressure;BME280_temperature;BME280_humidity;BME280_pressure;Samples;Min_cycle;Max_cycle;Signal;HPM_P1;HPM_P2
2021/09/22 00:00:05;;;;;;;18.02;13.50;;;9.90;28.70;;;;;;5052917;28;20561;-74
2021/09/22 00:02:34;;;;;;;27.75;17.17;;;9.90;28.40;;;;;;5063911;28;20086;-73
2021/09/22 00:05:02;;;;;;;32.80;18.30;;;9.80;29.40;;;;;;5037559;28;20048;-74
2021/09/22 00:07:30;;;;;;;32.35;18.02;;;9.80;28.80;;;;;;5055249;28;20128;-73
2021/09/22 00:10:01;;;;;;;21.05;15.48;;;9.70;29.50;;;;;;5058603;28;20099;-74
2021/09/22 00:12:30;;;;;;;20.30;14.57;;;9.70;29.70;;;;;;5057028;28;20072;-74
2021/09/22 00:14:58;;;;;;;23.05;15.77;;;9.60;29.80;;;;;;5064498;28;20080;-72
2021/09/22 00:17:26;;;;;;;23.25;14.05;;;9.60;30.40;;;;;;5060574;28;20044;-73
2021/09/22 00:19:54;;;;;;;16.13;13.02;;;9.70;30.00;;;;;;5039108;28;20060;-73
2021/09/22 00:22:23;;;;;;;19.50;13.07;;;9.60;29.30;;;;;;5063987;28;20452;-73
2021/09/22 00:24:51;;;;;;;17.50;13.57;;;9.60;29.80;;;;;;5058173;28;20049;-73
2021/09/22 00:27:19;;;;;;;18.30;14.65;;;9.60;30.10;;;;;;5055996;28;20049;-73
2021/09/22 00:29:49;;;;;;;22.83;13.93;;;9.60;30.10;;;;;;5059084;28;20102;-73
2021/09/22 00:32:17;;;;;;;17.90;13.52;;;9.50;30.90;;;;;;5059552;28;20044;-73
2021/09/22 00:34:45;;;;;;;14.43;12.13;;;9.40;32.30;;;;;;5060960;28;20045;-74
2021/09/22 00:37:13;;;;;;;16.60;13.77;;;9.50;32.40;;;;;;5044468;28;20469;-73
2021/09/22 00:39:41;;;;;;;19.48;14.23;;;9.40;32.10;;;;;;5054559;28;20143;-74
2021/09/22 00:42:09;;;;;;;16.73;13.25;;;9.40;33.00;;;;;;5045471;28;20294;-74
2021/09/22 00:44:50;;;;;;;17.00;13.00;;;9.40;32.60;;;;;;5044495;28;20048;-73
2021/09/22 00:47:18;;;;;;;19.25;13.38;;;9.40;32.40;;;;;;5056058;28;20052;-73
2021/09/22 00:49:46;;;;;;;17.55;13.25;;;9.40;32.20;;;;;;5059034;28;20068;-73
2021/09/22 00:52:15;;;;;;;18.98;14.18;;;9.30;33.00;;;;;;5064778;28;20093;-74
2021/09/22 00:54:44;;;;;;;19.27;13.45;;;9.40;33.20;;;;;;5062198;28;20102;-73
2021/09/22 00:57:21;;;;;;;18.02;13.13;;;9.30;33.10;;;;;;5062124;28;20048;-74
2021/09/22 00:59:51;;;;;;;18.38;13.77;;;9.20;33.60;;;;;;5059728;28;20090;-73
2021/09/22 01:02:19;;;;;;;19.83;13.60;;;9.20;34.10;;;;;;5045209;28;20143;-72
2021/09/22 01:04:48;;;;;;;18.13;13.82;;;9.20;35.00;;;;;;5068341;28;20040;-73
2021/09/22 01:07:17;;;;;;;15.55;13.18;;;9.20;35.50;;;;;;5060949;28;20044;-73
2021/09/22 01:09:45;;;;;;;19.67;13.73;;;9.20;35.20;;;;;;5058167;28;20112;-73
2021/09/22 01:12:13;;;;;;;20.65;13.77;;;9.10;35.20;;;;;;5065025;28;20144;-73
2021/09/22 01:14:43;;;;;;;22.77;14.60;;;9.00;35.80;;;;;;5063202;28;20040;-73
2021/09/22 01:17:12;;;;;;;18.50;14.05;;;8.90;36.50;;;;;;5047710;28;20056;-73
2021/09/22 01:19:40;;;;;;;18.65;14.27;;;9.00;36.40;;;;;;5060396;28;20133;-73
2021/09/22 01:22:09;;;;;;;18.17;13.05;;;9.00;36.30;;;;;;5064523;28;20045;-73
2021/09/22 01:24:37;;;;;;;20.67;13.68;;;9.00;36.40;;;;;;5066265;28;20113;-73
2021/09/22 01:27:06;;;;;;;19.45;13.48;;;8.90;37.00;;;;;;5045933;28;20080;-73
2021/09/22 01:29:34;;;;;;;18.20;13.93;;;8.90;37.10;;;;;;5060302;28;20146;-73
2021/09/22 01:32:02;;;;;;;18.88;14.45;;;8.90;37.50;;;;;;5065599;28;20045;-73
2021/09/22 01:34:30;;;;;;;18.85;13.43;;;8.90;37.80;;;;;;5063243;28;20053;-73
2021/09/22 01:36:58;;;;;;;17.98;13.38;;;9.00;37.20;;;;;;5061740;28;20052;-73
2021/09/22 01:39:27;;;;;;;18.48;13.90;;;8.90;37.10;;;;;;5060198;28;20450;-73
2021/09/22 01:41:55;;;;;;;18.17;13.70;;;8.90;37.90;;;;;;5062182;28;20056;-74
2021/09/22 01:44:23;;;;;;;17.80;14.07;;;8.90;37.10;;;;;;5065458;28;20092;-73
2021/09/22 01:46:51;;;;;;;19.27;14.35;;;8.90;37.70;;;;;;5064408;28;20523;-73
2021/09/22 01:49:23;;;;;;;21.35;14.20;;;9.00;38.00;;;;;;5060137;28;20052;-73
2021/09/22 01:51:56;;;;;;;18.45;14.07;;;9.00;37.60;;;;;;5014923;28;20155;-73
2021/09/22 01:54:24;;;;;;;18.85;14.07;;;8.90;37.10;;;;;;5064536;28;20071;-73
2021/09/22 01:56:54;;;;;;;19.27;13.43;;;8.80;37.70;;;;;;5041334;28;20090;-73
2021/09/22 01:59:22;;;;;;;19.77;15.23;;;8.80;38.00;;;;;;5062661;28;20075;-73
2021/09/22 02:01:50;;;;;;;16.45;12.98;;;8.90;38.30;;;;;;5062451;28;20102;-73
2021/09/22 02:04:19;;;;;;;17.55;13.70;;;8.90;38.00;;;;;;5062517;28;20492;-73
2021/09/22 02:06:47;;;;;;;18.73;14.05;;;8.90;37.10;;;;;;5060975;28;20049;-73
2021/09/22 02:09:15;;;;;;;20.10;13.73;;;8.90;37.60;;;;;;5063451;28;20064;-73
2021/09/22 02:11:42;;;;;;;19.73;13.77;;;8.90;37.50;;;;;;5060512;28;20066;-73
2021/09/22 02:14:12;;;;;;;20.85;15.43;;;8.90;38.60;;;;;;4988267;28;20094;-74
2021/09/22 02:16:40;;;;;;;18.38;14.25;;;8.80;38.30;;;;;;5063233;28;20821;-74
2021/09/22 02:19:08;;;;;;;20.35;14.43;;;8.80;38.80;;;;;;5057752;28;20036;-74
2021/09/22 02:21:36;;;;;;;19.02;13.77;;;8.80;38.80;;;;;;5063522;28;20051;-74
2021/09/22 02:24:04;;;;;;;17.15;13.32;;;8.90;39.10;;;;;;5064977;28;20041;-74
2021/09/22 02:26:32;;;;;;;18.65;14.00;;;8.80;38.10;;;;;;5060592;28;20594;-74
2021/09/22 02:29:00;;;;;;;18.63;13.73;;;8.70;37.90;;;;;;5062267;28;20099;-74
2021/09/22 02:31:30;;;;;;;19.58;14.23;;;8.70;37.90;;;;;;5062430;28;20109;-74
2021/09/22 02:34:00;;;;;;;19.65;13.77;;;8.70;37.80;;;;;;5061881;28;20423;-74
2021/09/22 02:36:28;;;;;;;18.25;13.70;;;8.70;37.80;;;;;;5042456;28;20124;-74
2021/09/22 02:38:56;;;;;;;16.70;13.18;;;8.60;38.20;;;;;;5024802;28;20057;-74
2021/09/22 02:41:24;;;;;;;17.83;13.45;;;8.60;39.00;;;;;;5021746;28;20484;-74
2021/09/22 02:43:52;;;;;;;19.08;14.05;;;8.50;37.80;;;;;;5007732;28;20049;-74
2021/09/22 02:46:20;;;;;;;18.63;13.93;;;8.40;38.40;;;;;;5018783;28;20056;-74
2021/09/22 02:48:49;;;;;;;19.70;14.18;;;8.40;38.90;;;;;;5045428;28;20059;-74
2021/09/22 02:51:17;;;;;;;18.08;14.13;;;8.40;40.20;;;;;;5043715;28;20057;-74
2021/09/22 02:53:46;;;;;;;18.52;13.80;;;8.40;39.80;;;;;;5041608;28;20044;-74
2021/09/22 02:56:14;;;;;;;20.42;14.40;;;8.30;40.40;;;;;;5038847;28;20045;-74
2021/09/22 02:58:41;;;;;;;19.92;14.63;;;8.40;40.90;;;;;;5040672;28;20072;-72
2021/09/22 03:01:09;;;;;;;19.42;14.52;;;8.40;41.40;;;;;;5038731;28;20417;-72
2021/09/22 03:03:38;;;;;;;22.67;15.00;;;8.30;41.80;;;;;;5046363;28;20052;-72
2021/09/22 03:06:08;;;;;;;20.70;15.18;;;8.40;41.90;;;;;;5042541;28;20088;-73
2021/09/22 03:08:38;;;;;;;17.67;13.32;;;8.60;41.30;;;;;;5035554;28;20045;-72
2021/09/22 03:11:08;;;;;;;21.88;14.82;;;8.70;39.80;;;;;;5037606;28;20095;-73
2021/09/22 03:13:41;;;;;;;22.20;15.10;;;8.70;38.40;;;;;;5036355;28;20049;-73
2021/09/22 03:16:09;;;;;;;21.63;14.95;;;8.80;38.10;;;;;;5029010;28;20111;-73
2021/09/22 03:18:38;;;;;;;20.73;14.88;;;8.70;36.90;;;;;;5021202;28;20489;-73
2021/09/22 03:21:08;;;;;;;20.70;15.80;;;8.70;37.00;;;;;;5021622;28;20042;-74
2021/09/22 03:23:36;;;;;;;22.27;14.23;;;8.70;37.00;;;;;;5024996;28;20041;-73
2021/09/22 03:26:04;;;;;;;20.20;13.98;;;8.70;37.00;;;;;;5020216;28;20096;-73
2021/09/22 03:28:34;;;;;;;19.13;14.13;;;8.80;37.00;;;;;;5029128;28;20045;-71
2021/09/22 03:31:03;;;;;;;17.30;13.27;;;8.70;36.90;;;;;;5003359;28;20061;-73
2021/09/22 03:33:31;;;;;;;18.98;14.15;;;8.50;36.70;;;;;;5021464;28;20501;-74
2021/09/22 03:35:59;;;;;;;18.30;14.00;;;8.40;37.00;;;;;;4977955;28;20063;-73
2021/09/22 03:38:29;;;;;;;18.90;13.45;;;8.10;38.10;;;;;;5043401;28;20048;-73
2021/09/22 03:40:57;;;;;;;18.10;13.10;;;8.10;39.60;;;;;;5035631;28;20131;-73
2021/09/22 03:43:25;;;;;;;18.02;14.25;;;8.10;40.00;;;;;;5030460;28;20045;-73
2021/09/22 03:45:55;;;;;;;19.00;14.95;;;8.10;40.70;;;;;;5026510;28;20139;-73
2021/09/22 03:48:23;;;;;;;19.55;15.27;;;8.10;41.40;;;;;;5041122;28;20050;-73
2021/09/22 03:50:51;;;;;;;21.52;15.55;;;8.00;41.20;;;;;;5039637;28;20045;-73
2021/09/22 03:53:21;;;;;;;17.85;13.57;;;7.90;41.80;;;;;;5036910;28;20456;-73
2021/09/22 03:55:51;;;;;;;29.15;15.48;;;7.90;42.10;;;;;;5041075;28;20041;-73
2021/09/22 03:58:19;;;;;;;22.55;14.68;;;7.90;43.20;;;;;;5042133;28;20431;-73
2021/09/22 04:00:47;;;;;;;18.75;14.77;;;7.90;43.40;;;;;;5018249;28;20449;-73
2021/09/22 04:03:15;;;;;;;19.23;14.70;;;7.80;43.00;;;;;;5045716;28;20242;-73
2021/09/22 04:05:43;;;;;;;21.58;15.75;;;7.70;44.50;;;;;;5042056;28;20041;-74
2021/09/22 04:08:11;;;;;;;17.80;13.50;;;7.70;44.40;;;;;;5042906;28;20114;-73
2021/09/22 04:10:39;;;;;;;18.00;14.40;;;7.80;45.20;;;;;;5036676;28;20069;-73
2021/09/22 04:13:09;;;;;;;21.55;13.95;;;7.70;44.40;;;;;;5040570;28;20049;-73
2021/09/22 04:15:37;;;;;;;19.27;14.38;;;7.70;44.50;;;;;;5043115;28;20049;-73
2021/09/22 04:18:05;;;;;;;26.70;16.13;;;7.80;45.00;;;;;;5047544;28;20049;-73
2021/09/22 04:20:33;;;;;;;22.85;15.75;;;7.80;44.50;;;;;;5038154;28;20046;-74
2021/09/22 04:23:01;;;;;;;20.85;14.85;;;7.90;44.60;;;;;;5061486;28;20146;-73
2021/09/22 04:25:30;;;;;;;19.92;14.68;;;7.90;44.10;;;;;;5067405;28;20044;-74
2021/09/22 04:27:59;;;;;;;21.15;14.65;;;7.90;44.50;;;;;;5058173;28;20050;-74
2021/09/22 04:30:29;;;;;;;19.00;14.32;;;7.90;44.10;;;;;;5065527;28;20049;-74
2021/09/22 04:32:57;;;;;;;17.75;13.45;;;7.90;44.00;;;;;;5068011;28;20491;-73
2021/09/22 04:35:25;;;;;;;19.33;14.07;;;7.90;43.40;;;;;;5061437;28;20048;-73
2021/09/22 04:37:54;;;;;;;20.88;15.30;;;7.90;43.20;;;;;;5065659;28;20064;-75
2021/09/22 04:40:23;;;;;;;23.00;15.48;;;7.90;43.10;;;;;;5061971;28;20036;-73
2021/09/22 04:42:51;;;;;;;21.98;14.55;;;7.90;43.90;;;;;;5042735;28;20045;-74
2021/09/22 04:45:20;;;;;;;24.23;16.35;;;8.00;44.10;;;;;;5051499;28;20351;-74
2021/09/22 04:47:50;;;;;;;28.40;19.02;;;8.10;44.20;;;;;;5046212;28;20572;-74
2021/09/22 04:50:19;;;;;;;24.55;17.92;;;8.20;44.70;;;;;;5059325;28;20048;-73
2021/09/22 04:52:47;;;;;;;31.77;19.55;;;8.20;43.90;;;;;;5048104;28;20126;-75
2021/09/22 04:55:15;;;;;;;23.98;17.67;;;8.30;43.80;;;;;;5042073;28;20060;-74
2021/09/22 04:57:45;;;;;;;25.40;18.08;;;8.30;42.90;;;;;;5063678;28;20412;-74
2021/09/22 05:00:18;;;;;;;25.48;16.52;;;8.20;42.80;;;;;;5064449;28;20135;-74
2021/09/22 05:02:46;;;;;;;27.50;18.10;;;8.30;43.20;;;;;;5061693;28;20086;-74
2021/09/22 05:05:16;;;;;;;25.45;17.38;;;8.30;42.90;;;;;;5067256;28;20300;-73
2021/09/22 05:07:44;;;;;;;26.25;16.73;;;8.30;42.90;;;;;;5065368;28;20044;-75
2021/09/22 05:10:12;;;;;;;23.10;17.00;;;8.40;42.10;;;;;;5060531;28;20047;-75
2021/09/22 05:12:41;;;;;;;23.25;16.90;;;8.40;41.30;;;;;;5066229;28;20076;-74
2021/09/22 05:15:10;;;;;;;24.02;16.48;;;8.40;41.20;;;;;;5064940;28;20079;-73
2021/09/22 05:17:41;;;;;;;24.85;16.50;;;8.30;41.00;;;;;;5062606;28;20053;-75
2021/09/22 05:20:12;;;;;;;27.20;16.77;;;8.30;40.80;;;;;;5064109;28;20044;-74
2021/09/22 05:22:42;;;;;;;24.15;16.58;;;8.40;40.90;;;;;;5065626;28;20043;-74
2021/09/22 05:25:11;;;;;;;23.05;16.45;;;8.40;40.90;;;;;;5066524;28;20040;-74
2021/09/22 05:27:39;;;;;;;24.27;15.90;;;8.50;40.80;;;;;;5049260;28;20063;-74
2021/09/22 05:30:08;;;;;;;24.10;16.27;;;8.50;39.50;;;;;;5061359;28;20113;-73
2021/09/22 05:32:36;;;;;;;24.10;17.05;;;8.50;38.00;;;;;;5065959;28;20056;-73
2021/09/22 05:35:05;;;;;;;21.27;15.95;;;8.50;37.60;;;;;;5048106;28;20600;-74
2021/09/22 05:37:33;;;;;;;20.73;15.52;;;8.50;38.10;;;;;;5062074;28;20056;-74
2021/09/22 05:40:03;;;;;;;24.80;16.25;;;8.60;37.90;;;;;;5062018;28;21330;-72
2021/09/22 05:42:31;;;;;;;22.42;16.25;;;8.60;37.70;;;;;;5059797;28;20079;-74
2021/09/22 05:44:59;;;;;;;26.45;16.70;;;8.70;36.90;;;;;;5052786;28;20104;-73
2021/09/22 05:47:27;;;;;;;22.40;16.10;;;8.70;37.00;;;;;;5050389;28;20048;-74
2021/09/22 05:49:55;;;;;;;23.52;16.38;;;8.80;37.00;;;;;;5060575;28;20500;-74
2021/09/22 05:52:24;;;;;;;21.63;15.23;;;8.80;35.20;;;;;;5058492;28;20053;-74
2021/09/22 05:54:52;;;;;;;24.98;15.95;;;8.90;34.50;;;;;;5066253;28;20049;-75
2021/09/22 05:57:21;;;;;;;26.50;15.60;;;8.90;33.60;;;;;;5062402;28;20119;-73
2021/09/22 05:59:50;;;;;;;28.38;16.17;;;8.90;33.80;;;;;;5056422;28;20052;-75
2021/09/22 06:02:18;;;;;;;28.77;16.92;;;9.00;32.40;;;;;;5063329;28;20480;-74
2021/09/22 06:04:48;;;;;;;23.73;16.40;;;9.10;31.30;;;;;;5061361;28;20059;-73
2021/09/22 06:07:16;;;;;;;23.48;15.98;;;9.20;31.00;;;;;;5048724;28;20044;-74
2021/09/22 06:09:44;;;;;;;28.13;16.58;;;9.30;30.50;;;;;;5056528;28;20048;-75
2021/09/22 06:12:12;;;;;;;25.00;16.50;;;9.30;29.20;;;;;;5060180;28;20060;-73
2021/09/22 06:14:50;;;;;;;24.63;16.35;;;9.50;29.30;;;;;;5048395;28;20044;-74
2021/09/22 06:17:21;;;;;;;23.52;15.90;;;9.70;28.10;;;;;;5038418;28;20579;-75
2021/09/22 06:19:53;;;;;;;29.35;17.30;;;9.70;27.40;;;;;;5038684;28;20040;-74
2021/09/22 06:22:24;;;;;;;25.52;17.48;;;9.60;26.70;;;;;;5062351;28;20506;-74
2021/09/22 06:24:53;;;;;;;25.63;16.67;;;9.60;26.30;;;;;;5060527;28;20511;-74
2021/09/22 06:27:35;;;;;;;27.23;16.88;;;9.80;26.70;;;;;;5058199;28;20057;-74
2021/09/22 06:30:06;;;;;;;24.50;17.38;;;9.90;25.20;;;;;;5044613;28;20607;-74
2021/09/22 06:32:35;;;;;;;25.90;16.80;;;10.10;23.60;;;;;;5047561;28;20040;-75
2021/09/22 06:35:04;;;;;;;25.17;15.68;;;10.00;23.80;;;;;;5061787;28;20036;-74
2021/09/22 06:37:32;;;;;;;26.27;17.25;;;10.20;22.20;;;;;;5058888;28;20305;-74
2021/09/22 06:40:00;;;;;;;22.13;15.45;;;10.40;21.10;;;;;;5055868;28;20466;-75
2021/09/22 06:42:28;;;;;;;23.55;15.88;;;10.30;20.80;;;;;;5030378;28;20132;-74
2021/09/22 06:44:56;;;;;;;28.33;16.15;;;10.30;20.40;;;;;;5067337;28;20049;-74
2021/09/22 06:47:26;;;;;;;23.60;16.17;;;10.40;19.90;;;;;;5063126;28;20048;-74
2021/09/22 06:49:54;;;;;;;24.95;16.00;;;10.40;20.20;;;;;;5064037;28;20102;-74
2021/09/22 06:52:22;;;;;;;25.33;15.82;;;10.40;18.80;;;;;;5064004;28;20040;-75
2021/09/22 06:54:51;;;;;;;25.42;15.80;;;10.20;20.50;;;;;;5048639;28;20052;-74
2021/09/22 06:57:27;;;;;;;25.25;16.38;;;10.30;21.20;;;;;;5069971;28;20051;-74
2021/09/22 06:59:55;;;;;;;22.35;15.60;;;10.50;19.60;;;;;;5061404;28;20514;-75
2021/09/22 07:02:23;;;;;;;26.02;17.85;;;10.40;19.20;;;;;;5067469;28;20106;-74
2021/09/22 07:04:54;;;;;;;22.48;16.13;;;10.70;19.00;;;;;;5049156;28;20107;-73
2021/09/22 07:07:22;;;;;;;23.88;16.40;;;10.60;19.00;;;;;;5064864;28;20036;-74
2021/09/22 07:09:50;;;;;;;21.73;15.32;;;10.70;18.30;;;;;;5061297;28;20045;-73
2021/09/22 07:12:18;;;;;;;26.00;16.58;;;10.80;18.10;;;;;;5065556;28;20052;-75
2021/09/22 07:14:47;;;;;;;23.05;15.63;;;10.80;17.10;;;;;;5065993;28;20044;-74
2021/09/22 07:17:17;;;;;;;24.42;15.13;;;10.70;17.00;;;;;;5030456;28;20503;-74
2021/09/22 07:19:46;;;;;;;22.73;16.92;;;10.80;16.90;;;;;;5045328;28;20125;-73
2021/09/22 07:22:15;;;;;;;23.75;15.75;;;11.00;15.70;;;;;;5061015;28;20048;-73
2021/09/22 07:24:44;;;;;;;26.35;19.42;;;11.10;14.00;;;;;;5067891;28;20043;-74
2021/09/22 07:27:13;;;;;;;24.75;16.55;;;11.30;14.10;;;;;;5068663;28;20136;-73
2021/09/22 07:29:41;;;;;;;24.38;16.75;;;10.90;15.60;;;;;;5064282;28;20090;-75
2021/09/22 07:32:10;;;;;;;25.42;16.55;;;11.20;14.50;;;;;;5064105;28;20040;-74
2021/09/22 07:34:38;;;;;;;24.65;15.80;;;11.20;14.00;;;;;;5066905;28;20056;-73
2021/09/22 07:37:11;;;;;;;24.80;14.68;;;11.50;12.50;;;;;;5067174;28;20044;-74
2021/09/22 07:39:41;;;;;;;20.42;15.20;;;11.50;12.50;;;;;;5062197;28;20048;-74
2021/09/22 07:42:12;;;;;;;21.63;15.43;;;11.60;11.20;;;;;;5046845;28;20102;-72
2021/09/22 07:44:42;;;;;;;26.75;16.65;;;11.80;10.50;;;;;;5046451;28;20048;-74
2021/09/22 07:47:13;;;;;;;25.60;15.80;;;11.80;11.00;;;;;;5064293;28;20048;-74
2021/09/22 07:49:41;;;;;;;23.67;16.05;;;11.80;10.00;;;;;;5063365;28;20045;-73
2021/09/22 07:52:10;;;;;;;23.65;15.88;;;11.60;10.70;;;;;;5063675;28;20547;-73
2021/09/22 07:54:40;;;;;;;26.90;17.10;;;11.40;11.60;;;;;;5063979;28;20044;-73
2021/09/22 07:57:09;;;;;;;22.52;15.05;;;11.50;13.00;;;;;;5063624;28;20099;-73
2021/09/22 07:59:38;;;;;;;22.45;15.68;;;12.00;11.00;;;;;;5060894;28;20165;-74
2021/09/22 08:02:07;;;;;;;24.60;15.90;;;12.10;7.90;;;;;;5068039;28;20578;-73
2021/09/22 08:04:35;;;;;;;20.20;14.73;;;12.10;7.90;;;;;;5066966;28;20559;-73
2021/09/22 08:07:03;;;;;;;25.10;14.73;;;12.50;7.40;;;;;;5046127;28;20409;-73
2021/09/22 08:09:32;;;;;;;21.13;14.50;;;12.60;4.40;;;;;;5059634;28;20052;-75
2021/09/22 08:12:02;;;;;;;31.75;21.25;;;12.50;5.10;;;;;;5064516;28;20052;-73
2021/09/22 08:14:35;;;;;;;21.85;15.38;;;12.80;5.30;;;;;;5069740;28;20064;-74
2021/09/22 08:17:04;;;;;;;23.70;14.45;;;12.90;1.20;;;;;;5046831;28;20052;-74
2021/09/22 08:19:35;;;;;;;20.48;13.98;;;12.80;2.20;;;;;;5064917;28;20040;-75
2021/09/22 08:22:04;;;;;;;20.45;14.82;;;13.20;2.00;;;;;;5060081;28;20037;-73
2021/09/22 08:24:33;;;;;;;19.17;14.45;;;13.10;1.10;;;;;;5067170;28;20094;-74
2021/09/22 08:27:04;;;;;;;18.40;13.82;;;13.30;1.60;;;;;;5061672;28;20072;-74
2021/09/22 08:29:32;;;;;;;19.80;13.68;;;13.40;1.00;;;;;;5059720;28;20051;-74
2021/09/22 08:32:04;;;;;;;22.23;14.68;;;13.60;1.00;;;;;;5064874;28;20045;-74
2021/09/22 08:34:32;;;;;;;18.98;14.15;;;13.60;1.00;;;;;;5063499;28;20059;-73
2021/09/22 08:37:01;;;;;;;17.95;14.00;;;13.40;1.00;;;;;;5069957;28;20075;-74
2021/09/22 08:39:29;;;;;;;20.58;14.27;;;13.50;1.00;;;;;;5059862;28;20049;-73
2021/09/22 08:41:58;;;;;;;21.05;13.98;;;13.70;1.00;;;;;;5067352;28;20036;-73
2021/09/22 08:44:27;;;;;;;18.45;13.20;;;14.10;1.00;;;;;;5065154;28;20259;-73
2021/09/22 08:47:10;;;;;;;;;;;14.50;1.00;;;;;;5071335;28;20490;-73
2021/09/22 08:49:40;;;;;;;18.10;13.18;;;14.60;1.00;;;;;;5063031;28;19925;-74
2021/09/22 08:52:09;;;;;;;17.88;13.32;;;14.20;1.00;;;;;;5064520;28;20516;-74
2021/09/22 08:54:41;;;;;;;17.60;13.52;;;14.30;1.00;;;;;;5060988;28;20049;-73
2021/09/22 08:57:09;;;;;;;22.50;13.93;;;14.30;1.00;;;;;;5067490;28;20040;-74
2021/09/22 08:59:38;;;;;;;19.35;13.20;;;13.90;1.00;;;;;;5061891;28;20041;-72
2021/09/22 09:02:09;;;;;;;16.17;13.25;;;14.10;1.00;;;;;;5064023;28;20048;-74
2021/09/22 09:04:39;;;;;;;20.90;12.85;;;14.60;1.00;;;;;;5066603;28;20131;-73
2021/09/22 09:07:08;;;;;;;18.92;12.85;;;15.00;1.00;;;;;;5063571;28;20049;-73
2021/09/22 09:09:38;;;;;;;18.33;11.38;;;15.00;1.00;;;;;;5064313;28;20052;-74
2021/09/22 09:12:16;;;;;;;17.30;12.02;;;15.10;1.00;;;;;;5068579;28;20094;-73
2021/09/22 09:14:53;;;;;;;16.85;12.43;;;15.10;1.00;;;;;;5069139;28;20048;-73
2021/09/22 09:17:36;;;;;;;16.10;11.60;;;15.00;1.00;;;;;;5071145;28;20048;-74
2021/09/22 09:20:19;;;;;;;16.35;11.63;;;15.50;1.00;;;;;;5065411;28;20147;-73
2021/09/22 09:22:56;;;;;;;13.35;10.73;;;15.40;1.00;;;;;;5070674;28;20036;-74
2021/09/22 09:25:25;;;;;;;14.00;9.80;;;15.30;1.00;;;;;;5071139;28;20075;-74
2021/09/22 09:27:54;;;;;;;13.02;9.68;;;15.40;1.00;;;;;;5066687;28;20051;-74
2021/09/22 09:30:26;;;;;;;12.98;10.52;;;15.60;1.00;;;;;;5064031;28;20040;-74
2021/09/22 09:32:54;;;;;;;10.40;9.10;;;15.70;1.00;;;;;;5067732;28;20115;-74
2021/09/22 09:35:24;;;;;;;10.88;8.82;;;15.70;1.00;;;;;;5067201;28;20124;-74
2021/09/22 09:37:54;;;;;;;14.10;9.27;;;15.50;1.00;;;;;;5068806;28;20098;-73
2021/09/22 09:40:27;;;;;;;12.27;8.68;;;15.40;1.00;;;;;;5067330;28;20055;-73
2021/09/22 09:42:59;;;;;;;13.00;8.75;;;15.80;1.00;;;;;;5069798;28;20045;-74
2021/09/22 09:45:34;;;;;;;11.38;8.65;;;15.60;1.00;;;;;;5067319;28;20049;-73
2021/09/22 09:48:06;;;;;;;10.85;8.10;;;15.80;1.00;;;;;;5052242;28;20103;-73
2021/09/22 09:50:40;;;;;;;11.60;8.38;;;16.10;1.00;;;;;;5063974;28;20054;-73
2021/09/22 09:53:09;;;;;;;9.77;7.97;;;16.30;1.00;;;;;;5068420;28;20094;-74
2021/09/22 09:55:41;;;;;;;10.40;8.38;;;16.50;1.00;;;;;;5031081;28;20041;-75
2021/09/22 09:58:14;;;;;;;12.23;7.65;;;16.70;1.00;;;;;;5065990;28;20079;-75
2021/09/22 10:00:49;;;;;;;12.30;8.40;;;16.10;1.00;;;;;;5044740;28;20048;-73
2021/09/22 10:03:19;;;;;;;8.52;6.72;;;16.10;1.00;;;;;;5066921;28;20132;-74
2021/09/22 10:05:48;;;;;;;8.32;7.20;;;16.00;1.00;;;;;;5068755;28;20047;-72
2021/09/22 10:08:21;;;;;;;8.63;6.82;;;16.10;1.00;;;;;;5068240;28;20044;-75
2021/09/22 10:10:51;;;;;;;8.73;7.53;;;16.10;1.00;;;;;;5064196;28;20040;-74
2021/09/22 10:13:20;;;;;;;8.85;7.68;;;16.50;1.00;;;;;;5045454;28;20056;-74
2021/09/22 10:15:52;;;;;;;9.18;7.20;;;16.60;1.00;;;;;;5069881;28;20044;-74
2021/09/22 10:18:21;;;;;;;6.28;5.13;;;16.90;1.00;;;;;;5067189;28;20047;-73
2021/09/22 10:20:50;;;;;;;10.85;6.07;;;16.90;1.00;;;;;;5065825;28;20612;-75
2021/09/22 10:23:22;;;;;;;7.82;5.57;;;16.70;1.00;;;;;;5049857;28;20106;-74
2021/09/22 10:25:51;;;;;;;7.57;5.10;;;16.50;1.00;;;;;;5050859;28;20143;-73
2021/09/22 10:28:41;;;;;;;7.20;6.10;;;16.50;1.00;;;;;;5066862;28;20058;-74
2021/09/22 10:31:36;;;;;;;6.57;5.00;;;16.50;1.00;;;;;;5063890;28;20064;-73
2021/09/22 10:34:06;;;;;;;7.13;6.25;;;16.50;1.00;;;;;;5060352;28;20212;-72
2021/09/22 10:36:39;;;;;;;7.57;6.00;;;16.80;1.00;;;;;;5058720;28;20068;-73
2021/09/22 10:39:09;;;;;;;9.32;6.22;;;16.90;1.00;;;;;;5056389;28;20131;-73
2021/09/22 10:41:43;;;;;;;10.75;5.53;;;16.90;1.00;;;;;;5060846;28;20406;-73
2021/09/22 10:44:12;;;;;;;7.15;5.85;;;16.80;1.00;;;;;;5041333;28;20052;-73
2021/09/22 10:46:42;;;;;;;10.30;6.45;;;16.90;1.00;;;;;;5059174;28;20049;-73
2021/09/22 10:49:16;;;;;;;9.43;5.95;;;17.00;1.00;;;;;;5057296;28;20064;-74
2021/09/22 10:51:48;;;;;;;6.93;5.18;;;17.20;1.00;;;;;;5064077;28;20059;-73
2021/09/22 10:54:19;;;;;;;9.40;5.68;;;17.10;1.00;;;;;;5041166;28;20138;-74
2021/09/22 10:56:53;;;;;;;9.80;6.20;;;17.40;1.00;;;;;;5062138;28;20050;-73
2021/09/22 10:59:27;;;;;;;8.70;6.13;;;17.20;1.00;;;;;;5064380;28;20117;-73
2021/09/22 11:01:58;;;;;;;8.43;5.93;;;17.00;1.00;;;;;;5068732;28;20060;-75
2021/09/22 11:04:27;;;;;;;8.77;6.28;;;17.00;1.00;;;;;;5063062;28;20036;-74
2021/09/22 11:06:59;;;;;;;9.13;6.13;;;17.30;1.00;;;;;;5064386;28;20056;-73
2021/09/22 11:09:37;;;;;;;7.80;6.55;;;17.20;1.00;;;;;;5060777;28;20067;-73
2021/09/22 11:12:16;;;;;;;8.68;5.72;;;17.10;1.00;;;;;;5042325;28;20171;-73
2021/09/22 11:14:48;;;;;;;7.45;6.20;;;17.20;1.00;;;;;;5061400;28;20037;-73
2021/09/22 11:17:21;;;;;;;7.35;5.40;;;18.10;1.00;;;;;;5005633;28;20056;-74
2021/09/22 11:19:52;;;;;;;6.43;5.63;;;17.80;1.00;;;;;;5054427;28;20119;-72
2021/09/22 11:22:21;;;;;;;6.38;4.80;;;17.70;1.00;;;;;;5057424;28;20052;-73
2021/09/22 11:24:54;;;;;;;7.85;5.05;;;17.90;1.00;;;;;;5064690;28;20495;-73
2021/09/22 11:27:24;;;;;;;4.95;4.38;;;18.00;1.00;;;;;;5030469;28;20103;-73
2021/09/22 11:29:54;;;;;;;6.25;4.72;;;18.20;1.00;;;;;;5039692;28;20048;-74
2021/09/22 11:32:33;;;;;;;6.25;4.93;;;18.30;1.00;;;;;;5057724;28;20051;-74
2021/09/22 11:35:04;;;;;;;7.95;5.13;;;18.10;1.00;;;;;;5055276;28;20503;-73
2021/09/22 11:37:35;;;;;;;6.65;4.05;;;18.10;1.00;;;;;;5033542;28;20045;-73
2021/09/22 11:40:15;;;;;;;4.53;3.90;;;18.50;1.00;;;;;;5057457;28;20056;-74
2021/09/22 11:42:55;;;;;;;5.22;3.95;;;18.40;1.00;;;;;;5057144;28;20044;-74
2021/09/22 11:45:24;;;;;;;4.75;3.88;;;18.60;1.00;;;;;;5060699;28;20094;-74
2021/09/22 11:47:56;;;;;;;4.88;3.90;;;18.20;1.00;;;;;;5058273;28;20051;-74
2021/09/22 11:50:26;;;;;;;6.85;4.00;;;18.40;1.00;;;;;;5055799;28;20641;-74
2021/09/22 11:52:54;;;;;;;11.40;4.05;;;18.20;1.00;;;;;;5055320;28;20052;-73
2021/09/22 11:55:22;;;;;;;8.52;4.15;;;18.10;1.00;;;;;;5067081;28;20043;-74
2021/09/22 11:57:50;;;;;;;6.40;3.88;;;18.30;1.00;;;;;;5059181;28;20064;-74
2021/09/22 12:00:20;;;;;;;5.82;3.90;;;18.20;1.00;;;;;;5054193;28;20048;-74
2021/09/22 12:02:48;;;;;;;4.18;3.70;;;18.30;1.00;;;;;;5054420;28;20045;-73
2021/09/22 12:05:21;;;;;;;9.75;3.65;;;18.50;1.00;;;;;;5057081;28;20506;-74
2021/09/22 12:07:53;;;;;;;6.53;4.70;;;18.40;1.00;;;;;;5056401;28;20049;-73
2021/09/22 12:10:23;;;;;;;7.80;4.70;;;18.50;1.00;;;;;;5061735;28;20077;-76
2021/09/22 12:12:52;;;;;;;7.72;4.57;;;18.40;1.00;;;;;;5057270;28;20337;-74
2021/09/22 12:15:20;;;;;;;5.00;4.28;;;18.50;1.00;;;;;;5060845;28;20060;-73
2021/09/22 12:17:49;;;;;;;7.25;4.32;;;18.50;1.00;;;;;;5056545;28;20044;-73
2021/09/22 12:20:19;;;;;;;5.88;4.13;;;18.70;1.00;;;;;;5056444;28;20376;-75
2021/09/22 12:22:59;;;;;;;7.32;3.88;;;18.80;1.00;;;;;;5055868;28;20045;-73
2021/09/22 12:25:28;;;;;;;6.28;4.20;;;18.80;1.00;;;;;;5059498;28;20040;-74
2021/09/22 12:27:56;;;;;;;4.65;3.90;;;18.50;1.00;;;;;;5056840;28;20040;-73
2021/09/22 12:30:31;;;;;;;6.70;4.13;;;18.50;1.00;;;;;;5031745;28;20060;-73
2021/09/22 12:33:02;;;;;;;5.07;4.13;;;18.60;1.00;;;;;;5054310;28;20045;-73
2021/09/22 12:35:35;;;;;;;5.75;4.30;;;18.50;1.00;;;;;;5059379;28;20042;-73
2021/09/22 12:38:07;;;;;;;5.60;3.70;;;18.40;1.00;;;;;;5056478;28;20564;-75
2021/09/22 12:40:38;;;;;;;6.60;3.65;;;18.10;1.00;;;;;;5052899;28;20440;-74
2021/09/22 12:43:19;;;;;;;7.53;4.15;;;18.50;1.00;;;;;;5055253;28;20068;-71
2021/09/22 12:45:47;;;;;;;6.10;4.00;;;18.30;1.00;;;;;;5060937;28;20051;-73
2021/09/22 12:48:23;;;;;;;5.07;4.00;;;18.40;1.00;;;;;;5059121;28;20522;-72
2021/09/22 12:50:53;;;;;;;9.35;4.85;;;18.30;1.00;;;;;;5059410;28;20053;-73
2021/09/22 12:53:22;;;;;;;8.48;4.15;;;18.10;1.00;;;;;;5056598;28;20116;-73